Aviation Digital Data Service (ADDS)

Output produced by METARs form (1346 UTC 24 August 2019)
found at http://www.aviationweather.gov/metar/data/
 
Forecast for: EGPH (EDINBURGH AIRPOR, GB)
Text: TAF EGPH 241059Z 2412/2512 06005KT CAVOK
Forecast period: 1200 UTC 24 August 2019 to 1200 UTC 25 August 2019
Forecast type: FROM: standard forecast or significant change
Winds: from the ENE (60 degrees) at 6 MPH (5 knots; 2.6 m/s)
Visibility: 6 or more miles 10+ km)
Ceiling: unknown
Clouds: missing
Weather: NSW  (no significant weather)
Text: TEMPO 2500/2507 7000
Forecast period: 0000 to 0700 UTC 25 August 2019
Forecast type: TEMPORARY: The following changes expected for less than half the time period
Visibility: 4 miles (7 km)
Ceiling: unknown
Clouds: missing
Weather: no significant weather forecast for this period
Text: PROB30 2503/2506 2000 BR BKN003
Forecast period: 0300 to 0600 UTC 25 August 2019
Forecast type: PROBABLE: 30 percent likelihood of the following during this time
Visibility: 1.24 miles (2.00 km)
Ceiling: 300 feet AGL
Clouds: broken clouds at 300 feet AGL
Weather: BR  (mist)